Jefferson, Louisiana
Current Conditions -  °F | °C
As of 3:27 AM on Friday 19 Dec 2014 (Local Time) from KMSY Reporting Station
Overcast Overcast  
Wind Chill: 58°   Ceiling: 2500
Heat Index: 58°   Visibility: 10mi
Dew Point: 51°   Wind: 9mph
Humidity: 78%   Direction: 70°ENE
Pressure: 30.05"   Gusts: NA
Location:  29.96°N, 90.17°W
Report Text: KMSY 190927Z 07008KT 10SM BKN025 OVC039 14/11 A3005 RMK AO2 T01440106
Loading
Personal Weather Stations






























Interactive Weather Map New forecast layout! Learn more

10-Day Weather Forecast

Advertisements
Track Severe Weather on mobile